createdAt,value
2018-08-18T00:00:21.267Z,99.90
2018-08-18T00:02:49.805Z,99.90
2018-08-18T00:05:18.542Z,99.90
2018-08-18T00:07:47.582Z,99.90
2018-08-18T00:10:17.864Z,99.90
2018-08-18T00:12:46.227Z,99.90
2018-08-18T00:15:14.543Z,99.90
2018-08-18T00:17:42.819Z,99.90
2018-08-18T00:20:17.128Z,99.90
2018-08-18T00:22:46.283Z,99.90
2018-08-18T00:25:15.251Z,99.90
2018-08-18T00:27:43.900Z,99.90
2018-08-18T00:30:17.382Z,99.90
2018-08-18T00:32:46.106Z,99.90
2018-08-18T00:35:14.723Z,99.90
2018-08-18T00:37:43.464Z,99.90
2018-08-18T00:40:12.456Z,99.90
2018-08-18T00:42:41.296Z,99.90
2018-08-18T00:45:11.133Z,99.90
2018-08-18T00:47:40.140Z,99.90
2018-08-18T00:50:09.369Z,99.90
2018-08-18T00:52:38.132Z,99.90
2018-08-18T00:55:06.719Z,99.90
2018-08-18T00:57:35.159Z,99.90
2018-08-18T01:00:03.600Z,99.90
2018-08-18T01:02:32.248Z,99.90
2018-08-18T01:05:01.517Z,99.90
2018-08-18T01:07:31.007Z,99.90
2018-08-18T01:10:00.134Z,99.90
2018-08-18T01:12:28.947Z,99.90
2018-08-18T01:14:58.213Z,99.90
2018-08-18T01:17:27.044Z,99.90
2018-08-18T01:19:56.898Z,99.90
2018-08-18T01:22:25.564Z,99.90
2018-08-18T01:24:54.485Z,99.90
2018-08-18T01:27:22.930Z,99.90
2018-08-18T01:29:56.607Z,99.90
2018-08-18T01:32:25.149Z,99.90
2018-08-18T01:34:54.320Z,99.90
2018-08-18T01:37:22.667Z,99.90
2018-08-18T01:39:53.037Z,99.90
2018-08-18T01:42:21.708Z,99.90
2018-08-18T01:44:51.908Z,99.90
2018-08-18T01:47:20.647Z,99.90
2018-08-18T01:49:49.227Z,99.90
2018-08-18T01:52:20.463Z,99.90
2018-08-18T01:54:48.995Z,99.90
2018-08-18T01:57:18.423Z,99.90
2018-08-18T01:59:47.339Z,99.90
2018-08-18T02:02:25.207Z,99.90
2018-08-18T02:04:53.945Z,99.90
2018-08-18T02:07:26.996Z,99.90
2018-08-18T02:09:55.794Z,99.90
2018-08-18T02:12:24.879Z,99.90
2018-08-18T02:14:53.583Z,99.90
2018-08-18T02:17:25.932Z,99.90
2018-08-18T02:19:54.437Z,99.90
2018-08-18T02:22:23.811Z,99.90
2018-08-18T02:24:52.412Z,99.90
2018-08-18T02:27:20.699Z,99.90
2018-08-18T02:30:01.224Z,99.90
2018-08-18T02:32:32.306Z,99.90
2018-08-18T02:35:00.993Z,99.90
2018-08-18T02:37:30.263Z,99.90
2018-08-18T02:39:58.714Z,99.90
2018-08-18T02:42:27.555Z,99.90
2018-08-18T02:44:56.304Z,99.90
2018-08-18T02:47:24.699Z,99.90
2018-08-18T02:49:54.324Z,99.90
2018-08-18T02:52:24.111Z,99.90
2018-08-18T02:54:56.003Z,99.90
2018-08-18T02:57:27.509Z,99.90
2018-08-18T02:59:58.415Z,99.90
2018-08-18T03:02:26.705Z,99.90
2018-08-18T03:04:55.386Z,99.90
2018-08-18T03:07:24.128Z,99.90
2018-08-18T03:09:52.584Z,99.90
2018-08-18T03:12:20.928Z,99.90
2018-08-18T03:14:49.193Z,99.90
2018-08-18T03:17:18.451Z,99.90
2018-08-18T03:19:47.093Z,99.90
2018-08-18T03:22:15.723Z,99.90
2018-08-18T03:24:44.140Z,99.90
2018-08-18T03:27:12.730Z,99.90
2018-08-18T03:29:46.658Z,99.90
2018-08-18T03:32:15.043Z,99.90
2018-08-18T03:34:43.444Z,99.90
2018-08-18T03:37:25.173Z,99.90
2018-08-18T03:39:53.826Z,99.90
2018-08-18T03:42:23.373Z,99.90
2018-08-18T03:44:54.619Z,99.90
2018-08-18T03:47:23.007Z,99.90
2018-08-18T03:49:51.332Z,99.90
2018-08-18T03:52:19.671Z,99.90
2018-08-18T03:54:48.104Z,99.90
2018-08-18T03:57:17.983Z,99.90
2018-08-18T03:59:48.835Z,99.90
2018-08-18T04:02:21.547Z,99.90
2018-08-18T04:04:50.456Z,99.90
2018-08-18T04:07:19.961Z,99.90
2018-08-18T04:09:48.220Z,99.90
2018-08-18T04:12:16.525Z,99.90
2018-08-18T04:14:45.123Z,99.90
2018-08-18T04:17:25.027Z,99.90
2018-08-18T04:19:58.029Z,99.90
2018-08-18T04:22:27.952Z,99.90
2018-08-18T04:25:01.467Z,99.90
2018-08-18T04:27:40.735Z,99.90
2018-08-18T04:30:12.520Z,99.90
2018-08-18T04:32:51.059Z,99.90
2018-08-18T04:35:23.280Z,99.90
2018-08-18T04:37:53.612Z,99.90
2018-08-18T04:40:22.975Z,99.90
2018-08-18T04:42:56.224Z,99.90
2018-08-18T04:45:24.758Z,99.90
2018-08-18T04:47:55.261Z,99.90
2018-08-18T04:50:26.138Z,99.90
2018-08-18T04:52:55.511Z,99.90
2018-08-18T04:55:24.707Z,99.90
2018-08-18T04:57:53.736Z,99.90
2018-08-18T05:00:24.704Z,99.90
2018-08-18T05:02:58.751Z,99.90
2018-08-18T05:05:33.927Z,99.90
2018-08-18T05:08:06.907Z,99.90
2018-08-18T05:10:42.607Z,99.90
2018-08-18T05:13:15.928Z,99.90
2018-08-18T05:15:45.821Z,99.90
2018-08-18T05:18:17.575Z,99.90
2018-08-18T05:20:46.944Z,99.90
2018-08-18T05:23:24.188Z,99.90
2018-08-18T05:25:54.004Z,99.90
2018-08-18T05:28:24.186Z,99.90
2018-08-18T05:30:55.125Z,99.90
2018-08-18T05:33:25.199Z,99.90
2018-08-18T05:35:53.585Z,99.90
2018-08-18T05:38:23.460Z,99.90
2018-08-18T05:40:52.756Z,99.90
2018-08-18T05:43:21.206Z,99.90
2018-08-18T05:45:51.128Z,99.90
2018-08-18T05:48:19.696Z,99.90
2018-08-18T05:50:47.979Z,99.90
2018-08-18T05:53:22.539Z,99.90
2018-08-18T05:55:51.109Z,99.90
2018-08-18T05:58:19.657Z,99.90
2018-08-18T06:00:51.028Z,99.90
2018-08-18T06:03:21.561Z,99.90
2018-08-18T06:05:53.497Z,99.90
2018-08-18T06:08:22.752Z,99.90
2018-08-18T06:10:52.429Z,99.90
2018-08-18T06:13:22.368Z,99.90
2018-08-18T06:16:10.809Z,99.90
2018-08-18T06:18:40.556Z,99.90
2018-08-18T06:21:09.110Z,99.90
2018-08-18T06:23:39.067Z,99.90
2018-08-18T06:26:08.435Z,99.90
2018-08-18T06:28:38.032Z,99.90
2018-08-18T06:31:08.336Z,99.90
2018-08-18T06:33:38.781Z,99.90
2018-08-18T06:36:09.127Z,99.90
2018-08-18T06:38:39.044Z,99.90
2018-08-18T06:41:09.486Z,99.90
2018-08-18T06:43:42.013Z,99.90
2018-08-18T06:46:11.264Z,99.90
2018-08-18T06:48:40.460Z,99.90
2018-08-18T06:51:08.892Z,99.90
2018-08-18T06:53:43.875Z,99.90
2018-08-18T06:56:12.808Z,99.90
2018-08-18T06:58:42.216Z,99.90
2018-08-18T07:01:11.127Z,99.90
2018-08-18T07:03:41.411Z,99.90
2018-08-18T07:06:11.632Z,99.90
2018-08-18T07:08:53.200Z,99.90
2018-08-18T07:11:21.876Z,99.90
2018-08-18T07:13:50.557Z,99.90
2018-08-18T07:16:19.445Z,99.90
2018-08-18T07:18:49.992Z,99.90
2018-08-18T07:21:21.531Z,99.90
2018-08-18T07:23:50.039Z,99.90
2018-08-18T07:26:19.955Z,99.90
2018-08-18T07:28:48.491Z,99.90
2018-08-18T07:31:17.075Z,99.90
2018-08-18T07:33:45.545Z,99.90
2018-08-18T07:36:14.070Z,99.90
2018-08-18T07:38:42.663Z,99.90
2018-08-18T07:41:11.826Z,99.90
2018-08-18T07:43:40.473Z,99.90
2018-08-18T07:46:09.123Z,99.90
2018-08-18T07:48:37.451Z,99.90
2018-08-18T07:51:06.460Z,99.90
2018-08-18T07:53:36.682Z,99.90
2018-08-18T07:56:05.282Z,99.90
2018-08-18T07:58:37.088Z,99.30
2018-08-18T08:01:08.055Z,99.30
2018-08-18T08:03:37.001Z,97.70
2018-08-18T08:06:06.279Z,97.70
2018-08-18T08:08:40.228Z,96.90
2018-08-18T08:11:14.395Z,95.60
2018-08-18T08:13:43.058Z,96.30
2018-08-18T08:16:11.351Z,95.70
2018-08-18T08:18:39.670Z,94.10
2018-08-18T08:21:10.402Z,95.30
2018-08-18T08:23:40.306Z,93.40
2018-08-18T08:26:10.533Z,93.50
2018-08-18T08:28:40.003Z,93.60
2018-08-18T08:31:08.328Z,93.70
2018-08-18T08:33:38.727Z,93.40
2018-08-18T08:36:08.643Z,94.10
2018-08-18T08:38:48.233Z,92.10
2018-08-18T08:41:16.571Z,93.00
2018-08-18T08:43:44.924Z,94.70
2018-08-18T08:46:13.588Z,95.60
2018-08-18T08:48:42.024Z,96.40
2018-08-18T08:51:11.046Z,95.50
2018-08-18T08:53:39.383Z,95.10
2018-08-18T08:56:07.801Z,93.80
2018-08-18T08:58:40.958Z,92.20
2018-08-18T09:01:09.261Z,92.60
2018-08-18T09:03:37.959Z,92.20
2018-08-18T09:06:06.365Z,90.40
2018-08-18T09:08:34.719Z,91.10
2018-08-18T09:11:04.307Z,90.30
2018-08-18T09:13:32.640Z,86.50
2018-08-18T09:16:01.051Z,84.80
2018-08-18T09:18:29.756Z,84.90
2018-08-18T09:20:58.329Z,82.40
2018-08-18T09:23:27.023Z,81.90
2018-08-18T09:25:55.495Z,84.70
2018-08-18T09:28:24.250Z,80.50
2018-08-18T09:30:52.796Z,80.90
2018-08-18T09:33:21.092Z,81.90
2018-08-18T09:35:59.132Z,82.60
2018-08-18T09:38:27.503Z,83.40
2018-08-18T09:40:55.832Z,82.50
2018-08-18T09:43:25.472Z,85.50
2018-08-18T09:45:56.263Z,84.20
2018-08-18T09:48:25.753Z,85.00
2018-08-18T09:50:55.728Z,86.80
2018-08-18T09:53:24.676Z,90.00
2018-08-18T09:55:53.224Z,91.40
2018-08-18T09:58:21.821Z,92.00
2018-08-18T10:00:50.169Z,92.50
2018-08-18T10:03:18.503Z,93.90
2018-08-18T10:05:46.846Z,94.40
2018-08-18T10:08:15.852Z,95.40
2018-08-18T10:10:44.529Z,96.00
2018-08-18T10:13:13.246Z,95.40
2018-08-18T10:15:42.165Z,95.50
2018-08-18T10:18:10.634Z,95.60
2018-08-18T10:20:44.744Z,96.70
2018-08-18T10:23:13.608Z,96.30
2018-08-18T10:25:42.254Z,96.00
2018-08-18T10:28:10.592Z,95.50
2018-08-18T10:30:38.923Z,96.70
2018-08-18T10:33:07.611Z,97.20
2018-08-18T10:35:36.256Z,96.80
2018-08-18T10:38:06.109Z,96.10
2018-08-18T10:40:35.995Z,96.00
2018-08-18T10:43:05.045Z,95.80
2018-08-18T10:45:33.411Z,95.80
2018-08-18T10:48:03.868Z,96.50
2018-08-18T10:50:44.224Z,94.70
2018-08-18T10:53:12.832Z,94.40
2018-08-18T10:55:41.137Z,94.50
2018-08-18T10:58:10.278Z,95.60
2018-08-18T11:00:39.089Z,93.90
2018-08-18T11:03:08.491Z,95.00
2018-08-18T11:05:36.780Z,94.90
2018-08-18T11:08:06.077Z,94.40
2018-08-18T11:10:38.606Z,94.20
2018-08-18T11:13:07.211Z,91.90
2018-08-18T11:15:35.504Z,91.40
2018-08-18T11:18:04.128Z,90.20
2018-08-18T11:20:33.752Z,91.10
2018-08-18T11:23:12.100Z,90.40
2018-08-18T11:25:44.543Z,90.60
2018-08-18T11:28:13.533Z,90.20
2018-08-18T11:30:42.003Z,86.50
2018-08-18T11:33:12.536Z,86.70
2018-08-18T11:35:40.808Z,87.00
2018-08-18T11:38:11.999Z,81.20
2018-08-18T11:40:40.591Z,77.70
2018-08-18T11:43:10.688Z,80.10
2018-08-18T11:45:39.862Z,80.60
2018-08-18T11:48:11.173Z,77.50
2018-08-18T11:50:39.808Z,76.70
2018-08-18T11:53:08.219Z,75.00
2018-08-18T11:55:37.247Z,76.30
2018-08-18T11:58:08.126Z,80.50
2018-08-18T12:00:41.976Z,83.90
2018-08-18T12:03:14.997Z,85.30
2018-08-18T12:05:49.473Z,89.30
2018-08-18T12:08:19.947Z,88.30
2018-08-18T12:10:49.294Z,86.00
2018-08-18T12:13:17.907Z,85.60
2018-08-18T12:16:11.200Z,82.10
2018-08-18T12:18:40.979Z,78.00
2018-08-18T12:21:09.589Z,71.30
2018-08-18T12:23:39.370Z,72.20
2018-08-18T12:26:12.196Z,67.00
2018-08-18T12:28:47.744Z,61.50
2018-08-18T12:31:20.442Z,62.70
2018-08-18T12:33:49.084Z,60.70
2018-08-18T12:36:17.466Z,61.10
2018-08-18T12:38:47.776Z,61.10
2018-08-18T12:41:16.716Z,63.50
2018-08-18T12:43:47.495Z,62.40
2018-08-18T12:46:17.747Z,61.60
2018-08-18T12:48:47.927Z,61.70
2018-08-18T12:51:17.444Z,64.60
2018-08-18T12:53:47.010Z,61.60
2018-08-18T12:56:17.299Z,58.90
2018-08-18T12:59:33.592Z,59.60
2018-08-18T13:02:02.711Z,59.00
2018-08-18T13:04:31.584Z,59.80
2018-08-18T13:07:00.435Z,59.50
2018-08-18T13:09:28.732Z,57.30
2018-08-18T13:11:58.272Z,55.70
2018-08-18T13:14:28.577Z,56.80
2018-08-18T13:16:57.547Z,54.20
2018-08-18T13:19:29.820Z,54.60
2018-08-18T13:21:58.681Z,55.80
2018-08-18T13:24:29.979Z,54.20
2018-08-18T13:26:59.685Z,55.50
2018-08-18T13:29:28.001Z,53.80
2018-08-18T13:31:56.548Z,55.00
2018-08-18T13:34:25.308Z,55.10
2018-08-18T13:36:53.718Z,54.20
2018-08-18T13:39:22.025Z,54.40
2018-08-18T13:41:51.035Z,53.60
2018-08-18T13:44:29.290Z,54.70
2018-08-18T13:46:57.566Z,56.40
2018-08-18T13:49:26.806Z,53.70
2018-08-18T13:51:55.228Z,54.90
2018-08-18T13:54:24.103Z,55.50
2018-08-18T13:56:52.677Z,56.30
2018-08-18T13:59:41.720Z,59.00
2018-08-18T14:02:10.542Z,58.50
2018-08-18T14:04:40.931Z,54.10
2018-08-18T14:07:10.515Z,55.00
2018-08-18T14:09:41.199Z,58.60
2018-08-18T14:12:14.715Z,55.20
2018-08-18T14:14:43.791Z,56.20
2018-08-18T14:17:12.594Z,55.10
2018-08-18T14:19:41.035Z,52.10
2018-08-18T14:22:10.180Z,52.50
2018-08-18T14:24:39.530Z,50.50
2018-08-18T14:27:12.813Z,50.70
2018-08-18T14:29:41.808Z,49.50
2018-08-18T14:32:15.756Z,50.70
2018-08-18T14:34:51.314Z,53.00
2018-08-18T14:37:20.567Z,50.50
2018-08-18T14:39:48.886Z,51.70
2018-08-18T14:42:17.431Z,52.90
2018-08-18T14:44:46.026Z,51.30
2018-08-18T14:47:15.400Z,53.30
2018-08-18T14:49:43.676Z,51.00
2018-08-18T14:52:11.993Z,51.50
2018-08-18T14:54:40.291Z,51.00
2018-08-18T14:57:08.759Z,51.40
2018-08-18T14:59:38.197Z,51.00
2018-08-18T15:02:07.915Z,52.20
2018-08-18T15:04:36.412Z,51.50
2018-08-18T15:07:05.001Z,52.40
2018-08-18T15:09:36.955Z,52.90
2018-08-18T15:12:06.108Z,53.90
2018-08-18T15:14:34.659Z,52.20
2018-08-18T15:17:03.332Z,51.80
2018-08-18T15:19:31.927Z,53.00
2018-08-18T15:22:02.945Z,53.60
2018-08-18T15:24:31.607Z,52.40
2018-08-18T15:27:00.092Z,52.60
2018-08-18T15:29:28.379Z,54.40
2018-08-18T15:31:56.972Z,50.40
2018-08-18T15:34:26.216Z,51.90
2018-08-18T15:36:54.492Z,51.90
2018-08-18T15:39:25.083Z,54.10
2018-08-18T15:41:56.386Z,53.30
2018-08-18T15:44:25.284Z,57.00
2018-08-18T15:46:54.409Z,58.50
2018-08-18T15:49:22.735Z,58.70
2018-08-18T15:51:51.549Z,61.20
2018-08-18T15:54:19.862Z,63.50
2018-08-18T15:56:48.511Z,65.30
2018-08-18T15:59:17.381Z,63.40
2018-08-18T16:01:45.936Z,63.10
2018-08-18T16:04:14.770Z,64.10
2018-08-18T16:06:43.650Z,64.80
2018-08-18T16:09:12.214Z,66.50
2018-08-18T16:11:40.515Z,67.40
2018-08-18T16:14:08.831Z,66.70
2018-08-18T16:16:52.728Z,68.20
2018-08-18T16:19:21.424Z,68.90
2018-08-18T16:21:49.706Z,70.20
2018-08-18T16:24:30.348Z,69.90
2018-08-18T16:26:59.424Z,70.80
2018-08-18T16:29:27.886Z,68.30
2018-08-18T16:32:13.923Z,70.40
2018-08-18T16:34:43.356Z,72.00
2018-08-18T16:37:11.638Z,73.60
2018-08-18T16:39:40.552Z,74.70
2018-08-18T16:42:09.088Z,72.80
2018-08-18T16:44:37.470Z,73.60
2018-08-18T16:47:06.395Z,73.70
2018-08-18T16:49:34.936Z,74.90
2018-08-18T16:52:03.244Z,76.20
2018-08-18T16:54:33.166Z,76.00
2018-08-18T16:57:02.251Z,78.40
2018-08-18T16:59:30.757Z,77.30
2018-08-18T17:01:59.047Z,78.90
2018-08-18T17:04:30.686Z,79.70
2018-08-18T17:06:59.466Z,83.40
2018-08-18T17:09:46.588Z,80.80
2018-08-18T17:12:20.971Z,80.60
2018-08-18T17:14:49.459Z,82.40
2018-08-18T17:17:17.749Z,83.30
2018-08-18T17:19:47.199Z,84.80
2018-08-18T17:22:16.123Z,85.60
2018-08-18T17:24:44.528Z,84.60
2018-08-18T17:27:12.851Z,84.20
2018-08-18T17:29:42.598Z,82.00
2018-08-18T17:32:11.327Z,89.30
2018-08-18T17:34:40.089Z,84.60
2018-08-18T17:37:08.395Z,88.10
2018-08-18T17:39:37.081Z,87.00
2018-08-18T17:42:05.743Z,89.20
2018-08-18T17:44:34.154Z,89.20
2018-08-18T17:47:08.651Z,88.60
2018-08-18T17:50:13.552Z,89.30
2018-08-18T17:52:42.195Z,91.20
2018-08-18T17:55:15.152Z,90.30
2018-08-18T17:57:43.760Z,90.90
2018-08-18T18:00:14.239Z,91.00
2018-08-18T18:02:48.220Z,92.30
2018-08-18T18:05:24.265Z,92.40
2018-08-18T18:07:54.792Z,92.70
2018-08-18T18:10:24.312Z,93.30
2018-08-18T18:12:52.677Z,92.10
2018-08-18T18:15:35.344Z,93.80
2018-08-18T18:18:03.980Z,93.50
2018-08-18T18:20:33.948Z,95.10
2018-08-18T18:23:02.590Z,95.60
2018-08-18T18:25:31.244Z,94.70
2018-08-18T18:28:01.306Z,94.90
2018-08-18T18:30:30.083Z,96.30
2018-08-18T18:32:58.553Z,97.10
2018-08-18T18:35:27.244Z,97.50
2018-08-18T18:38:03.243Z,97.30
2018-08-18T18:40:36.933Z,97.80
2018-08-18T18:43:05.524Z,98.20
2018-08-18T18:45:34.163Z,98.20
2018-08-18T18:48:02.584Z,98.20
2018-08-18T18:50:31.232Z,97.70
2018-08-18T18:52:59.795Z,97.40
2018-08-18T18:55:28.594Z,97.30
2018-08-18T18:58:09.989Z,99.30
2018-08-18T19:00:39.488Z,98.10
2018-08-18T19:03:09.473Z,99.00
2018-08-18T19:05:38.085Z,98.50
2018-08-18T19:08:10.152Z,98.50
2018-08-18T19:10:38.901Z,99.90
2018-08-18T19:13:07.807Z,99.90
2018-08-18T19:15:36.183Z,99.90
2018-08-18T19:18:04.744Z,99.90
2018-08-18T19:20:33.015Z,99.90
2018-08-18T19:23:07.905Z,99.90
2018-08-18T19:25:37.288Z,99.90
2018-08-18T19:28:05.561Z,99.90
2018-08-18T19:30:34.576Z,99.90
2018-08-18T19:33:03.452Z,99.90
2018-08-18T19:35:40.359Z,99.90
2018-08-18T19:38:09.128Z,99.90
2018-08-18T19:40:39.049Z,99.90
2018-08-18T19:43:10.335Z,99.90
2018-08-18T19:45:39.015Z,99.90
2018-08-18T19:48:08.448Z,99.90
2018-08-18T19:50:36.804Z,99.90
2018-08-18T19:53:10.567Z,99.90
2018-08-18T19:55:39.035Z,99.90
2018-08-18T19:58:07.339Z,99.90
2018-08-18T20:00:35.852Z,99.90
2018-08-18T20:03:07.480Z,99.90
2018-08-18T20:05:35.753Z,99.90
2018-08-18T20:08:04.106Z,99.90
2018-08-18T20:10:36.033Z,99.90
2018-08-18T20:13:04.416Z,99.90
2018-08-18T20:15:32.684Z,99.90
2018-08-18T20:18:01.246Z,99.90
2018-08-18T20:20:31.419Z,99.90
2018-08-18T20:22:59.691Z,99.90
2018-08-18T20:25:28.335Z,99.90
2018-08-18T20:27:56.786Z,99.90
2018-08-18T20:30:25.156Z,99.90
2018-08-18T20:32:53.792Z,99.90
2018-08-18T20:35:22.138Z,99.90
2018-08-18T20:37:51.013Z,99.90
2018-08-18T20:40:19.727Z,99.90
2018-08-18T20:42:48.617Z,99.90
2018-08-18T20:45:17.176Z,99.90
2018-08-18T20:47:45.578Z,99.90
2018-08-18T20:50:14.270Z,99.90
2018-08-18T20:52:42.813Z,99.90
2018-08-18T20:55:11.122Z,99.90
2018-08-18T20:57:40.185Z,99.90
2018-08-18T21:00:10.265Z,99.90
2018-08-18T21:02:39.120Z,99.90
2018-08-18T21:05:09.471Z,99.90
2018-08-18T21:07:37.811Z,99.90
2018-08-18T21:10:08.640Z,99.90
2018-08-18T21:12:42.697Z,99.90
2018-08-18T21:15:11.688Z,99.90
2018-08-18T21:17:39.964Z,99.90
2018-08-18T21:20:11.028Z,99.90
2018-08-18T21:22:39.314Z,99.90
2018-08-18T21:25:09.087Z,99.90
2018-08-18T21:27:37.397Z,99.90
2018-08-18T21:30:09.432Z,99.90
2018-08-18T21:32:37.731Z,99.90
2018-08-18T21:35:07.170Z,99.90
2018-08-18T21:37:35.470Z,99.90
2018-08-18T21:40:04.373Z,99.90
2018-08-18T21:42:32.655Z,99.90
2018-08-18T21:45:00.931Z,99.90
2018-08-18T21:47:29.513Z,99.90
2018-08-18T21:49:58.132Z,99.90
2018-08-18T21:52:26.506Z,99.90
2018-08-18T21:54:54.951Z,99.90
2018-08-18T21:57:23.925Z,99.90
2018-08-18T21:59:55.612Z,99.90
2018-08-18T22:02:37.456Z,99.90
2018-08-18T22:05:07.531Z,99.90
2018-08-18T22:07:41.167Z,99.90
2018-08-18T22:10:10.340Z,99.90
2018-08-18T22:12:39.506Z,99.90
2018-08-18T22:15:14.367Z,99.90
2018-08-18T22:17:42.688Z,99.90
2018-08-18T22:20:11.260Z,99.90
2018-08-18T22:22:39.863Z,99.90
2018-08-18T22:25:08.465Z,99.90
2018-08-18T22:27:37.553Z,99.90
2018-08-18T22:30:08.095Z,99.90
2018-08-18T22:32:38.991Z,99.90
2018-08-18T22:35:08.524Z,99.90
2018-08-18T22:37:36.839Z,99.90
2018-08-18T22:40:05.759Z,99.90
2018-08-18T22:42:34.443Z,99.90
2018-08-18T22:45:14.220Z,99.90
2018-08-18T22:47:43.435Z,99.90
2018-08-18T22:50:11.696Z,99.90
2018-08-18T22:52:40.212Z,99.90
2018-08-18T22:55:09.140Z,99.90
2018-08-18T22:57:37.447Z,99.90
2018-08-18T23:00:06.407Z,99.90
2018-08-18T23:02:34.976Z,99.90
2018-08-18T23:05:03.368Z,99.90
2018-08-18T23:07:32.124Z,99.90
2018-08-18T23:10:00.501Z,99.90
2018-08-18T23:12:29.040Z,99.90
2018-08-18T23:14:57.965Z,99.90
2018-08-18T23:17:26.579Z,99.90
2018-08-18T23:19:54.903Z,99.90
2018-08-18T23:22:38.271Z,99.90
2018-08-18T23:25:06.972Z,99.90
2018-08-18T23:27:35.240Z,99.90
2018-08-18T23:30:04.929Z,99.90
2018-08-18T23:32:33.459Z,99.90
2018-08-18T23:35:01.736Z,99.90
2018-08-18T23:37:30.603Z,99.90
2018-08-18T23:39:59.358Z,99.90
2018-08-18T23:42:28.284Z,99.90
2018-08-18T23:44:56.594Z,99.90
2018-08-18T23:47:25.102Z,99.90
2018-08-18T23:49:53.993Z,99.90
2018-08-18T23:52:22.313Z,99.90
2018-08-18T23:54:51.523Z,99.90
2018-08-18T23:57:20.459Z,99.90
2018-08-18T23:59:49.946Z,99.90
